sensor_id;sensor_type;location;lat;lon;timestamp;P1;durP1;ratioP1;P2;durP2;ratioP2
45420;SDS011;55462;47.042;8.292;2024-01-10T00:02:20;31.63;;;22.40;;
45420;SDS011;55462;47.042;8.292;2024-01-10T00:04:45;33.77;;;22.73;;
45420;SDS011;55462;47.042;8.292;2024-01-10T00:07:11;34.13;;;23.47;;
45420;SDS011;55462;47.042;8.292;2024-01-10T00:09:36;32.13;;;22.57;;
45420;SDS011;55462;47.042;8.292;2024-01-10T00:12:01;31.93;;;22.73;;
45420;SDS011;55462;47.042;8.292;2024-01-10T00:14:27;33.23;;;23.43;;
45420;SDS011;55462;47.042;8.292;2024-01-10T00:16:52;31.10;;;23.57;;
45420;SDS011;55462;47.042;8.292;2024-01-10T00:19:17;36.03;;;24.70;;
45420;SDS011;55462;47.042;8.292;2024-01-10T00:21:43;36.80;;;25.07;;
45420;SDS011;55462;47.042;8.292;2024-01-10T00:24:08;32.23;;;23.17;;
45420;SDS011;55462;47.042;8.292;2024-01-10T00:26:33;32.33;;;23.17;;
45420;SDS011;55462;47.042;8.292;2024-01-10T00:28:59;33.87;;;22.90;;
45420;SDS011;55462;47.042;8.292;2024-01-10T00:31:24;31.37;;;22.97;;
45420;SDS011;55462;47.042;8.292;2024-01-10T00:33:50;31.50;;;21.83;;
45420;SDS011;55462;47.042;8.292;2024-01-10T00:36:15;34.93;;;23.70;;
45420;SDS011;55462;47.042;8.292;2024-01-10T00:38:40;37.20;;;25.37;;
45420;SDS011;55462;47.042;8.292;2024-01-10T00:41:06;32.40;;;23.67;;
45420;SDS011;55462;47.042;8.292;2024-01-10T00:43:32;37.67;;;25.50;;
45420;SDS011;55462;47.042;8.292;2024-01-10T00:45:57;34.93;;;22.77;;
45420;SDS011;55462;47.042;8.292;2024-01-10T00:48:22;32.53;;;22.50;;
45420;SDS011;55462;47.042;8.292;2024-01-10T00:50:48;32.17;;;23.43;;
45420;SDS011;55462;47.042;8.292;2024-01-10T00:53:13;34.53;;;22.60;;
45420;SDS011;55462;47.042;8.292;2024-01-10T00:55:39;41.77;;;23.93;;
45420;SDS011;55462;47.042;8.292;2024-01-10T00:58:04;35.77;;;23.93;;
45420;SDS011;55462;47.042;8.292;2024-01-10T01:00:29;34.50;;;23.27;;
45420;SDS011;55462;47.042;8.292;2024-01-10T01:02:55;32.73;;;23.60;;
45420;SDS011;55462;47.042;8.292;2024-01-10T01:05:20;32.60;;;22.37;;
45420;SDS011;55462;47.042;8.292;2024-01-10T01:07:45;33.40;;;23.03;;
45420;SDS011;55462;47.042;8.292;2024-01-10T01:10:10;35.07;;;24.30;;
45420;SDS011;55462;47.042;8.292;2024-01-10T01:12:36;33.67;;;22.67;;
45420;SDS011;55462;47.042;8.292;2024-01-10T01:15:02;39.23;;;24.53;;
45420;SDS011;55462;47.042;8.292;2024-01-10T01:17:30;33.00;;;23.50;;
45420;SDS011;55462;47.042;8.292;2024-01-10T01:19:56;38.50;;;24.97;;
45420;SDS011;55462;47.042;8.292;2024-01-10T01:22:21;36.43;;;24.93;;
45420;SDS011;55462;47.042;8.292;2024-01-10T01:24:46;36.23;;;23.77;;
45420;SDS011;55462;47.042;8.292;2024-01-10T01:27:12;33.80;;;25.30;;
45420;SDS011;55462;47.042;8.292;2024-01-10T01:29:38;37.53;;;24.77;;
45420;SDS011;55462;47.042;8.292;2024-01-10T01:32:03;36.50;;;24.70;;
45420;SDS011;55462;47.042;8.292;2024-01-10T01:34:28;33.73;;;22.83;;
45420;SDS011;55462;47.042;8.292;2024-01-10T01:36:54;38.17;;;24.83;;
45420;SDS011;55462;47.042;8.292;2024-01-10T01:39:19;35.63;;;24.67;;
45420;SDS011;55462;47.042;8.292;2024-01-10T01:41:44;39.80;;;25.37;;
45420;SDS011;55462;47.042;8.292;2024-01-10T01:44:10;36.53;;;25.10;;
45420;SDS011;55462;47.042;8.292;2024-01-10T01:46:35;34.13;;;24.13;;
45420;SDS011;55462;47.042;8.292;2024-01-10T01:49:01;34.90;;;24.63;;
45420;SDS011;55462;47.042;8.292;2024-01-10T01:51:26;35.07;;;24.47;;
45420;SDS011;55462;47.042;8.292;2024-01-10T01:53:53;33.33;;;23.87;;
45420;SDS011;55462;47.042;8.292;2024-01-10T01:56:18;34.77;;;23.43;;
45420;SDS011;55462;47.042;8.292;2024-01-10T01:58:44;32.03;;;22.90;;
45420;SDS011;55462;47.042;8.292;2024-01-10T02:01:10;38.87;;;24.63;;
45420;SDS011;55462;47.042;8.292;2024-01-10T02:03:36;34.77;;;24.23;;
45420;SDS011;55462;47.042;8.292;2024-01-10T02:06:02;35.53;;;24.10;;
45420;SDS011;55462;47.042;8.292;2024-01-10T02:08:34;34.93;;;24.50;;
45420;SDS011;55462;47.042;8.292;2024-01-10T02:11:03;33.27;;;23.53;;
45420;SDS011;55462;47.042;8.292;2024-01-10T02:13:28;38.40;;;23.67;;
45420;SDS011;55462;47.042;8.292;2024-01-10T02:15:54;32.63;;;24.30;;
45420;SDS011;55462;47.042;8.292;2024-01-10T02:18:19;37.53;;;23.20;;
45420;SDS011;55462;47.042;8.292;2024-01-10T02:20:45;34.57;;;24.27;;
45420;SDS011;55462;47.042;8.292;2024-01-10T02:23:15;34.73;;;23.73;;
45420;SDS011;55462;47.042;8.292;2024-01-10T02:25:40;38.10;;;24.80;;
45420;SDS011;55462;47.042;8.292;2024-01-10T02:28:06;35.63;;;24.63;;
45420;SDS011;55462;47.042;8.292;2024-01-10T02:30:32;36.10;;;24.93;;
45420;SDS011;55462;47.042;8.292;2024-01-10T02:32:58;36.93;;;25.37;;
45420;SDS011;55462;47.042;8.292;2024-01-10T02:35:24;34.50;;;24.47;;
45420;SDS011;55462;47.042;8.292;2024-01-10T02:37:49;36.60;;;24.17;;
45420;SDS011;55462;47.042;8.292;2024-01-10T02:40:16;34.73;;;24.27;;
45420;SDS011;55462;47.042;8.292;2024-01-10T02:42:42;34.90;;;23.77;;
45420;SDS011;55462;47.042;8.292;2024-01-10T02:45:07;32.00;;;23.17;;
45420;SDS011;55462;47.042;8.292;2024-01-10T02:47:32;34.93;;;24.33;;
45420;SDS011;55462;47.042;8.292;2024-01-10T02:49:58;36.53;;;24.10;;
45420;SDS011;55462;47.042;8.292;2024-01-10T02:52:23;36.03;;;24.50;;
45420;SDS011;55462;47.042;8.292;2024-01-10T02:54:49;33.67;;;23.97;;
45420;SDS011;55462;47.042;8.292;2024-01-10T02:57:14;34.80;;;24.10;;
45420;SDS011;55462;47.042;8.292;2024-01-10T02:59:39;38.07;;;25.20;;
45420;SDS011;55462;47.042;8.292;2024-01-10T03:02:04;34.07;;;23.93;;
45420;SDS011;55462;47.042;8.292;2024-01-10T03:04:30;35.93;;;24.47;;
45420;SDS011;55462;47.042;8.292;2024-01-10T03:06:55;37.30;;;25.67;;
45420;SDS011;55462;47.042;8.292;2024-01-10T03:09:22;35.83;;;24.60;;
45420;SDS011;55462;47.042;8.292;2024-01-10T03:11:47;37.57;;;25.20;;
45420;SDS011;55462;47.042;8.292;2024-01-10T03:14:12;36.77;;;24.47;;
45420;SDS011;55462;47.042;8.292;2024-01-10T03:16:38;38.83;;;23.90;;
45420;SDS011;55462;47.042;8.292;2024-01-10T03:19:03;36.27;;;24.40;;
45420;SDS011;55462;47.042;8.292;2024-01-10T03:21:29;36.80;;;25.20;;
45420;SDS011;55462;47.042;8.292;2024-01-10T03:23:55;35.43;;;25.90;;
45420;SDS011;55462;47.042;8.292;2024-01-10T03:26:21;36.23;;;24.93;;
45420;SDS011;55462;47.042;8.292;2024-01-10T03:28:47;35.80;;;24.97;;
45420;SDS011;55462;47.042;8.292;2024-01-10T03:31:12;34.37;;;23.73;;
45420;SDS011;55462;47.042;8.292;2024-01-10T03:33:37;34.90;;;23.97;;
45420;SDS011;55462;47.042;8.292;2024-01-10T03:36:04;36.33;;;25.10;;
45420;SDS011;55462;47.042;8.292;2024-01-10T03:38:32;34.70;;;23.73;;
45420;SDS011;55462;47.042;8.292;2024-01-10T03:40:57;33.17;;;24.13;;
45420;SDS011;55462;47.042;8.292;2024-01-10T03:43:22;37.67;;;25.63;;
45420;SDS011;55462;47.042;8.292;2024-01-10T03:45:48;38.93;;;23.43;;
45420;SDS011;55462;47.042;8.292;2024-01-10T03:48:13;40.70;;;25.20;;
45420;SDS011;55462;47.042;8.292;2024-01-10T03:50:38;37.67;;;25.83;;
45420;SDS011;55462;47.042;8.292;2024-01-10T03:53:03;36.00;;;23.90;;
45420;SDS011;55462;47.042;8.292;2024-01-10T03:55:29;35.57;;;23.13;;
45420;SDS011;55462;47.042;8.292;2024-01-10T03:57:54;33.20;;;22.60;;
45420;SDS011;55462;47.042;8.292;2024-01-10T04:00:21;37.27;;;25.03;;
45420;SDS011;55462;47.042;8.292;2024-01-10T04:02:46;33.37;;;24.20;;
45420;SDS011;55462;47.042;8.292;2024-01-10T04:05:11;38.77;;;24.37;;
45420;SDS011;55462;47.042;8.292;2024-01-10T04:07:39;36.97;;;23.97;;
45420;SDS011;55462;47.042;8.292;2024-01-10T04:10:06;39.03;;;25.57;;
45420;SDS011;55462;47.042;8.292;2024-01-10T04:12:35;37.23;;;24.50;;
45420;SDS011;55462;47.042;8.292;2024-01-10T04:15:01;38.43;;;25.03;;
45420;SDS011;55462;47.042;8.292;2024-01-10T04:17:26;41.70;;;25.20;;
45420;SDS011;55462;47.042;8.292;2024-01-10T04:19:51;33.33;;;24.40;;
45420;SDS011;55462;47.042;8.292;2024-01-10T04:22:16;38.63;;;24.60;;
45420;SDS011;55462;47.042;8.292;2024-01-10T04:24:42;35.03;;;24.13;;
45420;SDS011;55462;47.042;8.292;2024-01-10T04:27:07;41.47;;;24.77;;
45420;SDS011;55462;47.042;8.292;2024-01-10T04:29:32;37.40;;;24.93;;
45420;SDS011;55462;47.042;8.292;2024-01-10T04:31:58;35.23;;;23.60;;
45420;SDS011;55462;47.042;8.292;2024-01-10T04:34:23;36.83;;;25.53;;
45420;SDS011;55462;47.042;8.292;2024-01-10T04:36:49;34.90;;;25.00;;
45420;SDS011;55462;47.042;8.292;2024-01-10T04:39:15;35.97;;;25.70;;
45420;SDS011;55462;47.042;8.292;2024-01-10T04:41:45;40.80;;;25.73;;
45420;SDS011;55462;47.042;8.292;2024-01-10T04:44:11;33.67;;;23.97;;
45420;SDS011;55462;47.042;8.292;2024-01-10T04:46:36;35.60;;;23.50;;
45420;SDS011;55462;47.042;8.292;2024-01-10T04:49:01;40.10;;;25.23;;
45420;SDS011;55462;47.042;8.292;2024-01-10T04:51:27;37.43;;;24.07;;
45420;SDS011;55462;47.042;8.292;2024-01-10T04:53:52;39.60;;;26.03;;
45420;SDS011;55462;47.042;8.292;2024-01-10T04:56:17;39.33;;;25.23;;
45420;SDS011;55462;47.042;8.292;2024-01-10T04:58:43;38.90;;;25.70;;
45420;SDS011;55462;47.042;8.292;2024-01-10T05:01:08;39.90;;;24.73;;
45420;SDS011;55462;47.042;8.292;2024-01-10T05:03:34;36.30;;;24.07;;
45420;SDS011;55462;47.042;8.292;2024-01-10T05:05:59;42.53;;;25.63;;
45420;SDS011;55462;47.042;8.292;2024-01-10T05:08:24;40.37;;;27.40;;
45420;SDS011;55462;47.042;8.292;2024-01-10T05:10:51;35.77;;;24.90;;
45420;SDS011;55462;47.042;8.292;2024-01-10T05:13:16;45.83;;;26.63;;
45420;SDS011;55462;47.042;8.292;2024-01-10T05:15:43;41.47;;;26.90;;
45420;SDS011;55462;47.042;8.292;2024-01-10T05:18:08;37.20;;;25.20;;
45420;SDS011;55462;47.042;8.292;2024-01-10T05:20:35;38.47;;;25.67;;
45420;SDS011;55462;47.042;8.292;2024-01-10T05:23:00;38.87;;;25.50;;
45420;SDS011;55462;47.042;8.292;2024-01-10T05:25:26;37.87;;;24.20;;
45420;SDS011;55462;47.042;8.292;2024-01-10T05:27:52;37.40;;;25.03;;
45420;SDS011;55462;47.042;8.292;2024-01-10T05:30:18;39.13;;;24.30;;
45420;SDS011;55462;47.042;8.292;2024-01-10T05:32:44;40.37;;;25.40;;
45420;SDS011;55462;47.042;8.292;2024-01-10T05:35:09;34.97;;;24.83;;
45420;SDS011;55462;47.042;8.292;2024-01-10T05:37:35;36.07;;;24.57;;
45420;SDS011;55462;47.042;8.292;2024-01-10T05:40:00;36.83;;;24.73;;
45420;SDS011;55462;47.042;8.292;2024-01-10T05:42:26;39.07;;;25.53;;
45420;SDS011;55462;47.042;8.292;2024-01-10T05:44:51;36.90;;;24.23;;
45420;SDS011;55462;47.042;8.292;2024-01-10T05:47:17;37.50;;;24.87;;
45420;SDS011;55462;47.042;8.292;2024-01-10T05:49:42;39.30;;;25.47;;
45420;SDS011;55462;47.042;8.292;2024-01-10T05:52:08;39.10;;;25.17;;
45420;SDS011;55462;47.042;8.292;2024-01-10T05:54:33;40.70;;;25.83;;
45420;SDS011;55462;47.042;8.292;2024-01-10T05:56:59;36.40;;;24.27;;
45420;SDS011;55462;47.042;8.292;2024-01-10T05:59:25;38.60;;;26.30;;
45420;SDS011;55462;47.042;8.292;2024-01-10T06:01:51;39.23;;;25.43;;
45420;SDS011;55462;47.042;8.292;2024-01-10T06:04:17;37.67;;;25.10;;
45420;SDS011;55462;47.042;8.292;2024-01-10T06:06:42;40.27;;;25.23;;
45420;SDS011;55462;47.042;8.292;2024-01-10T06:09:07;38.20;;;25.83;;
45420;SDS011;55462;47.042;8.292;2024-01-10T06:11:40;36.80;;;23.93;;
45420;SDS011;55462;47.042;8.292;2024-01-10T06:14:05;36.63;;;24.53;;
45420;SDS011;55462;47.042;8.292;2024-01-10T06:16:31;37.27;;;26.53;;
45420;SDS011;55462;47.042;8.292;2024-01-10T06:18:56;38.80;;;25.97;;
45420;SDS011;55462;47.042;8.292;2024-01-10T06:21:21;38.20;;;26.40;;
45420;SDS011;55462;47.042;8.292;2024-01-10T06:23:47;39.53;;;25.57;;
45420;SDS011;55462;47.042;8.292;2024-01-10T06:26:12;47.00;;;27.87;;
45420;SDS011;55462;47.042;8.292;2024-01-10T06:28:37;43.87;;;27.97;;
45420;SDS011;55462;47.042;8.292;2024-01-10T06:31:05;44.27;;;28.53;;
45420;SDS011;55462;47.042;8.292;2024-01-10T06:33:30;42.63;;;27.43;;
45420;SDS011;55462;47.042;8.292;2024-01-10T06:35:56;39.97;;;26.77;;
45420;SDS011;55462;47.042;8.292;2024-01-10T06:38:22;41.87;;;26.80;;
45420;SDS011;55462;47.042;8.292;2024-01-10T06:40:48;38.57;;;25.53;;
45420;SDS011;55462;47.042;8.292;2024-01-10T06:43:14;43.23;;;27.13;;
45420;SDS011;55462;47.042;8.292;2024-01-10T06:45:41;42.30;;;26.07;;
45420;SDS011;55462;47.042;8.292;2024-01-10T06:48:07;46.47;;;27.00;;
45420;SDS011;55462;47.042;8.292;2024-01-10T06:50:34;38.37;;;26.30;;
45420;SDS011;55462;47.042;8.292;2024-01-10T06:53:01;37.53;;;25.20;;
45420;SDS011;55462;47.042;8.292;2024-01-10T06:55:27;40.13;;;24.77;;
45420;SDS011;55462;47.042;8.292;2024-01-10T06:57:54;39.83;;;24.37;;
45420;SDS011;55462;47.042;8.292;2024-01-10T07:00:20;37.37;;;25.73;;
45420;SDS011;55462;47.042;8.292;2024-01-10T07:02:46;32.63;;;24.20;;
45420;SDS011;55462;47.042;8.292;2024-01-10T07:05:11;35.63;;;23.73;;
45420;SDS011;55462;47.042;8.292;2024-01-10T07:07:37;38.47;;;25.47;;
45420;SDS011;55462;47.042;8.292;2024-01-10T07:10:02;37.23;;;25.47;;
45420;SDS011;55462;47.042;8.292;2024-01-10T07:12:31;39.23;;;25.33;;
45420;SDS011;55462;47.042;8.292;2024-01-10T07:15:00;40.07;;;26.77;;
45420;SDS011;55462;47.042;8.292;2024-01-10T07:17:28;38.87;;;26.03;;
45420;SDS011;55462;47.042;8.292;2024-01-10T07:19:53;42.13;;;25.77;;
45420;SDS011;55462;47.042;8.292;2024-01-10T07:22:21;41.87;;;25.83;;
45420;SDS011;55462;47.042;8.292;2024-01-10T07:24:47;39.90;;;24.57;;
45420;SDS011;55462;47.042;8.292;2024-01-10T07:27:12;42.27;;;25.80;;
45420;SDS011;55462;47.042;8.292;2024-01-10T07:29:39;40.53;;;26.43;;
45420;SDS011;55462;47.042;8.292;2024-01-10T07:32:05;44.37;;;27.77;;
45420;SDS011;55462;47.042;8.292;2024-01-10T07:34:31;39.33;;;25.00;;
45420;SDS011;55462;47.042;8.292;2024-01-10T07:36:57;37.80;;;24.43;;
45420;SDS011;55462;47.042;8.292;2024-01-10T07:39:22;39.10;;;25.60;;
45420;SDS011;55462;47.042;8.292;2024-01-10T07:41:48;39.43;;;24.73;;
45420;SDS011;55462;47.042;8.292;2024-01-10T07:44:14;37.23;;;25.73;;
45420;SDS011;55462;47.042;8.292;2024-01-10T07:46:40;38.67;;;25.97;;
45420;SDS011;55462;47.042;8.292;2024-01-10T07:49:11;42.07;;;28.23;;
45420;SDS011;55462;47.042;8.292;2024-01-10T07:51:37;41.20;;;27.33;;
45420;SDS011;55462;47.042;8.292;2024-01-10T07:54:02;38.20;;;26.90;;
45420;SDS011;55462;47.042;8.292;2024-01-10T07:56:27;41.33;;;26.43;;
45420;SDS011;55462;47.042;8.292;2024-01-10T07:58:53;44.20;;;26.73;;
45420;SDS011;55462;47.042;8.292;2024-01-10T08:01:18;40.77;;;26.07;;
45420;SDS011;55462;47.042;8.292;2024-01-10T08:03:43;40.87;;;27.83;;
45420;SDS011;55462;47.042;8.292;2024-01-10T08:06:09;52.90;;;28.40;;
45420;SDS011;55462;47.042;8.292;2024-01-10T08:08:35;41.63;;;27.77;;
45420;SDS011;55462;47.042;8.292;2024-01-10T08:11:01;44.57;;;26.50;;
45420;SDS011;55462;47.042;8.292;2024-01-10T08:13:27;43.77;;;27.10;;
45420;SDS011;55462;47.042;8.292;2024-01-10T08:15:52;43.67;;;27.50;;
45420;SDS011;55462;47.042;8.292;2024-01-10T08:18:17;43.97;;;28.00;;
45420;SDS011;55462;47.042;8.292;2024-01-10T08:20:43;50.47;;;28.83;;
45420;SDS011;55462;47.042;8.292;2024-01-10T08:23:08;50.23;;;30.70;;
45420;SDS011;55462;47.042;8.292;2024-01-10T08:25:34;50.23;;;29.40;;
45420;SDS011;55462;47.042;8.292;2024-01-10T08:27:59;51.70;;;30.27;;
45420;SDS011;55462;47.042;8.292;2024-01-10T08:30:24;46.43;;;28.30;;
45420;SDS011;55462;47.042;8.292;2024-01-10T08:32:50;46.47;;;28.17;;
45420;SDS011;55462;47.042;8.292;2024-01-10T08:35:15;51.70;;;30.03;;
45420;SDS011;55462;47.042;8.292;2024-01-10T08:37:40;55.37;;;30.73;;
45420;SDS011;55462;47.042;8.292;2024-01-10T08:40:08;50.37;;;29.20;;
45420;SDS011;55462;47.042;8.292;2024-01-10T08:42:36;56.17;;;29.73;;
45420;SDS011;55462;47.042;8.292;2024-01-10T08:45:03;46.73;;;28.60;;
45420;SDS011;55462;47.042;8.292;2024-01-10T08:47:28;47.83;;;27.80;;
45420;SDS011;55462;47.042;8.292;2024-01-10T08:49:57;49.60;;;28.60;;
45420;SDS011;55462;47.042;8.292;2024-01-10T08:52:22;49.13;;;30.53;;
45420;SDS011;55462;47.042;8.292;2024-01-10T08:54:47;47.87;;;29.03;;
45420;SDS011;55462;47.042;8.292;2024-01-10T08:57:13;52.87;;;30.67;;
45420;SDS011;55462;47.042;8.292;2024-01-10T08:59:41;56.43;;;30.57;;
45420;SDS011;55462;47.042;8.292;2024-01-10T09:02:07;55.90;;;30.47;;
45420;SDS011;55462;47.042;8.292;2024-01-10T09:04:32;55.67;;;32.00;;
45420;SDS011;55462;47.042;8.292;2024-01-10T09:06:58;60.13;;;30.57;;
45420;SDS011;55462;47.042;8.292;2024-01-10T09:09:23;58.53;;;31.90;;
45420;SDS011;55462;47.042;8.292;2024-01-10T09:11:48;50.57;;;30.20;;
45420;SDS011;55462;47.042;8.292;2024-01-10T09:14:14;51.13;;;29.80;;
45420;SDS011;55462;47.042;8.292;2024-01-10T09:16:39;51.90;;;30.10;;
45420;SDS011;55462;47.042;8.292;2024-01-10T09:19:06;48.67;;;30.73;;
45420;SDS011;55462;47.042;8.292;2024-01-10T09:21:31;54.50;;;30.10;;
45420;SDS011;55462;47.042;8.292;2024-01-10T09:23:56;64.33;;;31.67;;
45420;SDS011;55462;47.042;8.292;2024-01-10T09:26:22;47.60;;;30.37;;
45420;SDS011;55462;47.042;8.292;2024-01-10T09:28:48;55.17;;;30.13;;
45420;SDS011;55462;47.042;8.292;2024-01-10T09:31:13;57.40;;;31.57;;
45420;SDS011;55462;47.042;8.292;2024-01-10T09:33:38;57.20;;;31.07;;
45420;SDS011;55462;47.042;8.292;2024-01-10T09:36:04;53.97;;;31.97;;
45420;SDS011;55462;47.042;8.292;2024-01-10T09:38:30;54.10;;;30.13;;
45420;SDS011;55462;47.042;8.292;2024-01-10T09:41:00;60.10;;;31.73;;
45420;SDS011;55462;47.042;8.292;2024-01-10T09:43:29;49.53;;;30.90;;
45420;SDS011;55462;47.042;8.292;2024-01-10T09:45:55;59.40;;;29.47;;
45420;SDS011;55462;47.042;8.292;2024-01-10T09:48:22;54.83;;;30.47;;
45420;SDS011;55462;47.042;8.292;2024-01-10T09:50:47;55.50;;;30.37;;
45420;SDS011;55462;47.042;8.292;2024-01-10T09:53:17;53.43;;;31.30;;
45420;SDS011;55462;47.042;8.292;2024-01-10T09:55:48;55.77;;;31.50;;
45420;SDS011;55462;47.042;8.292;2024-01-10T09:58:14;59.47;;;32.57;;
45420;SDS011;55462;47.042;8.292;2024-01-10T10:00:39;55.43;;;32.57;;
45420;SDS011;55462;47.042;8.292;2024-01-10T10:03:05;61.70;;;32.80;;
45420;SDS011;55462;47.042;8.292;2024-01-10T10:05:32;71.97;;;33.73;;
45420;SDS011;55462;47.042;8.292;2024-01-10T10:07:59;68.43;;;34.73;;
45420;SDS011;55462;47.042;8.292;2024-01-10T10:10:24;60.20;;;32.67;;
45420;SDS011;55462;47.042;8.292;2024-01-10T10:12:50;68.00;;;34.40;;
45420;SDS011;55462;47.042;8.292;2024-01-10T10:15:17;73.10;;;34.10;;
45420;SDS011;55462;47.042;8.292;2024-01-10T10:17:45;65.50;;;32.30;;
45420;SDS011;55462;47.042;8.292;2024-01-10T10:20:23;58.67;;;30.97;;
45420;SDS011;55462;47.042;8.292;2024-01-10T10:22:57;63.50;;;32.53;;
45420;SDS011;55462;47.042;8.292;2024-01-10T10:25:26;63.43;;;33.60;;
45420;SDS011;55462;47.042;8.292;2024-01-10T10:27:56;68.37;;;32.43;;
45420;SDS011;55462;47.042;8.292;2024-01-10T10:30:22;60.23;;;33.07;;
45420;SDS011;55462;47.042;8.292;2024-01-10T10:32:47;60.20;;;31.63;;
45420;SDS011;55462;47.042;8.292;2024-01-10T10:35:12;62.83;;;33.00;;
45420;SDS011;55462;47.042;8.292;2024-01-10T10:37:38;58.03;;;31.67;;
45420;SDS011;55462;47.042;8.292;2024-01-10T10:40:03;56.47;;;32.20;;
45420;SDS011;55462;47.042;8.292;2024-01-10T10:42:29;54.47;;;33.07;;
45420;SDS011;55462;47.042;8.292;2024-01-10T10:44:57;56.53;;;30.80;;
45420;SDS011;55462;47.042;8.292;2024-01-10T10:47:29;49.97;;;30.00;;
45420;SDS011;55462;47.042;8.292;2024-01-10T10:49:57;55.00;;;29.60;;
45420;SDS011;55462;47.042;8.292;2024-01-10T10:52:24;54.10;;;29.03;;
45420;SDS011;55462;47.042;8.292;2024-01-10T10:54:50;52.33;;;29.03;;
45420;SDS011;55462;47.042;8.292;2024-01-10T10:57:20;56.40;;;31.10;;
45420;SDS011;55462;47.042;8.292;2024-01-10T10:59:46;49.63;;;30.07;;
45420;SDS011;55462;47.042;8.292;2024-01-10T11:02:12;54.07;;;29.33;;
45420;SDS011;55462;47.042;8.292;2024-01-10T11:04:41;51.97;;;30.07;;
45420;SDS011;55462;47.042;8.292;2024-01-10T11:07:07;58.63;;;31.50;;
45420;SDS011;55462;47.042;8.292;2024-01-10T11:09:33;49.33;;;29.60;;
45420;SDS011;55462;47.042;8.292;2024-01-10T11:15:06;55.87;;;31.50;;
45420;SDS011;55462;47.042;8.292;2024-01-10T11:17:44;43.17;;;27.97;;
45420;SDS011;55462;47.042;8.292;2024-01-10T11:20:30;47.23;;;30.13;;
45420;SDS011;55462;47.042;8.292;2024-01-10T11:25:40;47.33;;;28.80;;
45420;SDS011;55462;47.042;8.292;2024-01-10T11:28:05;43.63;;;28.37;;
45420;SDS011;55462;47.042;8.292;2024-01-10T11:30:34;42.30;;;28.20;;
45420;SDS011;55462;47.042;8.292;2024-01-10T11:36:07;45.80;;;28.30;;
45420;SDS011;55462;47.042;8.292;2024-01-10T11:38:49;40.23;;;26.77;;
45420;SDS011;55462;47.042;8.292;2024-01-10T11:41:28;41.43;;;26.50;;
45420;SDS011;55462;47.042;8.292;2024-01-10T11:46:42;37.77;;;25.87;;
45420;SDS011;55462;47.042;8.292;2024-01-10T11:49:11;43.47;;;26.80;;
45420;SDS011;55462;47.042;8.292;2024-01-10T11:51:43;41.00;;;27.37;;
45420;SDS011;55462;47.042;8.292;2024-01-10T11:54:09;41.53;;;26.73;;
45420;SDS011;55462;47.042;8.292;2024-01-10T11:56:38;37.63;;;24.20;;
45420;SDS011;55462;47.042;8.292;2024-01-10T11:59:07;39.07;;;26.53;;
45420;SDS011;55462;47.042;8.292;2024-01-10T12:01:35;37.50;;;24.97;;
45420;SDS011;55462;47.042;8.292;2024-01-10T12:04:02;42.57;;;25.57;;
45420;SDS011;55462;47.042;8.292;2024-01-10T12:06:28;40.43;;;26.20;;
45420;SDS011;55462;47.042;8.292;2024-01-10T12:08:54;37.17;;;25.13;;
45420;SDS011;55462;47.042;8.292;2024-01-10T12:11:19;40.10;;;24.93;;
45420;SDS011;55462;47.042;8.292;2024-01-10T12:13:45;42.20;;;27.40;;
45420;SDS011;55462;47.042;8.292;2024-01-10T12:16:11;40.57;;;26.63;;
45420;SDS011;55462;47.042;8.292;2024-01-10T12:18:38;39.70;;;25.87;;
45420;SDS011;55462;47.042;8.292;2024-01-10T12:21:03;38.73;;;25.97;;
45420;SDS011;55462;47.042;8.292;2024-01-10T12:23:29;46.17;;;25.77;;
45420;SDS011;55462;47.042;8.292;2024-01-10T12:25:56;39.60;;;24.83;;
45420;SDS011;55462;47.042;8.292;2024-01-10T12:28:26;38.60;;;24.53;;
45420;SDS011;55462;47.042;8.292;2024-01-10T12:30:51;38.73;;;24.20;;
45420;SDS011;55462;47.042;8.292;2024-01-10T12:33:17;38.13;;;24.83;;
45420;SDS011;55462;47.042;8.292;2024-01-10T12:35:42;41.67;;;26.50;;
45420;SDS011;55462;47.042;8.292;2024-01-10T12:38:10;39.63;;;23.87;;
45420;SDS011;55462;47.042;8.292;2024-01-10T12:40:36;43.10;;;25.30;;
45420;SDS011;55462;47.042;8.292;2024-01-10T12:43:05;38.90;;;23.60;;
45420;SDS011;55462;47.042;8.292;2024-01-10T12:45:30;38.57;;;24.77;;
45420;SDS011;55462;47.042;8.292;2024-01-10T12:47:59;35.87;;;23.63;;
45420;SDS011;55462;47.042;8.292;2024-01-10T12:50:25;39.30;;;24.40;;
45420;SDS011;55462;47.042;8.292;2024-01-10T12:52:50;40.30;;;24.73;;
45420;SDS011;55462;47.042;8.292;2024-01-10T12:55:16;42.23;;;24.50;;
45420;SDS011;55462;47.042;8.292;2024-01-10T12:57:42;36.50;;;23.47;;
45420;SDS011;55462;47.042;8.292;2024-01-10T13:00:08;32.67;;;24.70;;
45420;SDS011;55462;47.042;8.292;2024-01-10T13:02:36;38.73;;;23.03;;
45420;SDS011;55462;47.042;8.292;2024-01-10T13:05:03;34.63;;;22.93;;
45420;SDS011;55462;47.042;8.292;2024-01-10T13:07:29;40.30;;;24.80;;
45420;SDS011;55462;47.042;8.292;2024-01-10T13:09:56;40.47;;;25.53;;
45420;SDS011;55462;47.042;8.292;2024-01-10T13:12:21;37.00;;;24.23;;
45420;SDS011;55462;47.042;8.292;2024-01-10T13:14:47;40.70;;;24.37;;
45420;SDS011;55462;47.042;8.292;2024-01-10T13:17:12;36.80;;;24.10;;
45420;SDS011;55462;47.042;8.292;2024-01-10T13:19:37;38.80;;;25.03;;
45420;SDS011;55462;47.042;8.292;2024-01-10T13:22:03;35.23;;;25.40;;
45420;SDS011;55462;47.042;8.292;2024-01-10T13:24:28;41.73;;;24.57;;
45420;SDS011;55462;47.042;8.292;2024-01-10T13:26:54;41.53;;;26.30;;
45420;SDS011;55462;47.042;8.292;2024-01-10T13:29:20;39.87;;;24.87;;
45420;SDS011;55462;47.042;8.292;2024-01-10T13:31:45;33.83;;;23.47;;
45420;SDS011;55462;47.042;8.292;2024-01-10T13:34:12;39.50;;;24.70;;
45420;SDS011;55462;47.042;8.292;2024-01-10T13:36:37;37.73;;;25.77;;
45420;SDS011;55462;47.042;8.292;2024-01-10T13:39:03;40.20;;;25.47;;
45420;SDS011;55462;47.042;8.292;2024-01-10T13:41:28;33.43;;;23.80;;
45420;SDS011;55462;47.042;8.292;2024-01-10T13:43:54;35.87;;;23.30;;
45420;SDS011;55462;47.042;8.292;2024-01-10T13:46:19;35.73;;;24.60;;
45420;SDS011;55462;47.042;8.292;2024-01-10T13:48:44;35.73;;;23.23;;
45420;SDS011;55462;47.042;8.292;2024-01-10T13:51:10;39.50;;;24.40;;
45420;SDS011;55462;47.042;8.292;2024-01-10T13:53:35;39.17;;;24.07;;
45420;SDS011;55462;47.042;8.292;2024-01-10T13:56:01;37.37;;;23.20;;
45420;SDS011;55462;47.042;8.292;2024-01-10T13:58:26;43.23;;;25.50;;
45420;SDS011;55462;47.042;8.292;2024-01-10T14:00:51;36.97;;;23.87;;
45420;SDS011;55462;47.042;8.292;2024-01-10T14:03:17;40.80;;;23.73;;
45420;SDS011;55462;47.042;8.292;2024-01-10T14:05:42;48.70;;;23.77;;
45420;SDS011;55462;47.042;8.292;2024-01-10T14:08:07;38.07;;;23.80;;
45420;SDS011;55462;47.042;8.292;2024-01-10T14:10:33;33.93;;;22.77;;
45420;SDS011;55462;47.042;8.292;2024-01-10T14:12:59;41.17;;;23.20;;
45420;SDS011;55462;47.042;8.292;2024-01-10T14:15:25;37.47;;;23.40;;
45420;SDS011;55462;47.042;8.292;2024-01-10T14:17:50;30.83;;;21.37;;
45420;SDS011;55462;47.042;8.292;2024-01-10T14:20:16;34.00;;;22.40;;
45420;SDS011;55462;47.042;8.292;2024-01-10T14:22:41;34.37;;;21.93;;
45420;SDS011;55462;47.042;8.292;2024-01-10T14:25:07;34.50;;;22.33;;
45420;SDS011;55462;47.042;8.292;2024-01-10T14:27:34;34.27;;;22.33;;